Time;durP1;ratioP1;P1;durP2;ratioP2;P2;SDS_P1;SDS_P2;PMS_P1;PMS_P2;Temp;Humidity;BMP_temperature;BMP_pressure;BME280_temperature;BME280_humidity;BME280_pressure;Samples;Min_cycle;Max_cycle;Signal;HPM_P1;HPM_P2
2024/04/17 00:00:49;;;;;;;1.07;0.80;;;9.10;99.90;;;;;;5377727;26;20353;-66
2024/04/17 00:03:15;;;;;;;0.70;0.70;;;9.20;99.90;;;;;;5378728;26;20285;-67
2024/04/17 00:05:44;;;;;;;1.83;0.90;;;9.20;99.90;;;;;;5376026;26;20235;-66
2024/04/17 00:08:12;;;;;;;1.00;0.87;;;9.20;99.90;;;;;;5368989;26;20426;-66
2024/04/17 00:10:44;;;;;;;0.73;0.70;;;9.20;99.90;;;;;;5370129;26;20289;-67
2024/04/17 00:13:10;;;;;;;0.87;0.87;;;9.20;99.90;;;;;;5376131;26;20245;-66
2024/04/17 00:15:39;;;;;;;0.70;0.60;;;9.10;99.90;;;;;;5378003;26;20277;-67
2024/04/17 00:18:05;;;;;;;3.80;0.80;;;9.00;99.90;;;;;;5377055;26;20333;-67
2024/04/17 00:20:34;;;;;;;0.70;0.70;;;9.00;99.90;;;;;;5377077;26;20247;-66
2024/04/17 00:23:00;;;;;;;1.97;0.60;;;8.90;99.90;;;;;;5376813;26;20615;-67
2024/04/17 00:25:29;;;;;;;1.33;0.87;;;8.90;99.90;;;;;;5360568;26;20237;-67
2024/04/17 00:27:58;;;;;;;1.97;0.80;;;8.90;99.90;;;;;;5368301;26;20285;-67
2024/04/17 00:30:26;;;;;;;1.43;0.97;;;8.90;99.90;;;;;;5357998;26;20380;-67
2024/04/17 00:32:53;;;;;;;1.47;0.70;;;8.90;99.90;;;;;;5365964;26;20236;-67
2024/04/17 00:35:21;;;;;;;0.73;0.73;;;8.90;99.90;;;;;;5355417;26;20316;-66
2024/04/17 00:37:48;;;;;;;0.70;0.70;;;9.10;99.90;;;;;;5380581;26;20234;-67
2024/04/17 00:40:16;;;;;;;1.93;0.87;;;8.90;99.90;;;;;;5368061;26;20254;-67
2024/04/17 00:42:43;;;;;;;0.77;0.60;;;8.90;99.90;;;;;;5380430;26;20290;-67
2024/04/17 00:45:14;;;;;;;4.23;0.70;;;8.80;99.90;;;;;;5380314;26;20244;-67
2024/04/17 00:47:41;;;;;;;1.23;0.70;;;8.80;99.90;;;;;;5378639;26;20351;-67
2024/04/17 00:50:12;;;;;;;2.00;0.80;;;8.80;99.90;;;;;;5376650;26;20241;-67
2024/04/17 00:52:41;;;;;;;0.63;0.63;;;8.80;99.90;;;;;;5372887;26;20565;-68
2024/04/17 00:55:10;;;;;;;0.60;0.60;;;8.80;99.90;;;;;;5371892;26;20289;-68
2024/04/17 00:57:38;;;;;;;0.80;0.80;;;8.90;99.90;;;;;;5381547;26;20339;-68
2024/04/17 01:00:08;;;;;;;0.50;0.50;;;8.90;99.90;;;;;;5380867;26;20751;-68
2024/04/17 01:02:37;;;;;;;1.33;0.60;;;9.00;99.90;;;;;;5377118;26;20254;-68
2024/04/17 01:05:06;;;;;;;1.10;0.70;;;8.90;99.90;;;;;;5395905;26;20244;-67
2024/04/17 01:07:32;;;;;;;1.90;0.60;;;9.00;99.90;;;;;;5375316;26;20816;-67
2024/04/17 01:10:01;;;;;;;0.80;0.60;;;9.00;99.90;;;;;;5346088;26;20295;-67
2024/04/17 01:12:28;;;;;;;1.33;0.70;;;9.00;99.90;;;;;;5379663;26;20261;-67
2024/04/17 01:14:56;;;;;;;1.17;0.60;;;9.00;99.90;;;;;;5380229;26;20387;-67
2024/04/17 01:17:23;;;;;;;0.70;0.70;;;8.90;99.90;;;;;;5375673;26;20251;-68
2024/04/17 01:19:54;;;;;;;0.93;0.63;;;8.90;99.90;;;;;;5381022;26;20235;-67
2024/04/17 01:22:21;;;;;;;0.70;0.50;;;8.90;99.90;;;;;;5370153;26;20342;-67
2024/04/17 01:24:52;;;;;;;0.50;0.50;;;8.90;99.90;;;;;;5372935;26;20247;-68
2024/04/17 01:27:18;;;;;;;0.50;0.50;;;8.90;99.90;;;;;;5379799;26;20241;-67
2024/04/17 01:29:47;;;;;;;0.50;0.50;;;9.00;99.90;;;;;;5377913;26;20248;-68
2024/04/17 01:32:13;;;;;;;0.53;0.50;;;8.90;99.90;;;;;;5381657;26;20624;-68
2024/04/17 01:34:42;;;;;;;0.73;0.67;;;9.00;99.90;;;;;;5380493;26;20270;-68
2024/04/17 01:37:08;;;;;;;0.60;0.60;;;8.90;99.90;;;;;;5381195;26;20382;-68
2024/04/17 01:39:36;;;;;;;1.03;0.70;;;8.90;99.90;;;;;;5379384;26;20271;-68
2024/04/17 01:42:06;;;;;;;0.83;0.70;;;8.80;99.90;;;;;;5380499;26;20665;-68
2024/04/17 01:44:35;;;;;;;2.40;0.80;;;8.80;99.90;;;;;;5378845;26;20243;-66
2024/04/17 01:47:01;;;;;;;0.63;0.60;;;8.80;99.90;;;;;;5370140;26;20610;-67
2024/04/17 01:49:30;;;;;;;0.80;0.80;;;8.80;99.90;;;;;;5378399;26;20238;-67
2024/04/17 01:51:56;;;;;;;0.70;0.60;;;8.80;99.90;;;;;;5375346;26;20344;-67
2024/04/17 01:54:26;;;;;;;1.07;0.63;;;8.80;99.90;;;;;;5375809;26;20277;-67
2024/04/17 01:56:52;;;;;;;0.60;0.60;;;8.80;99.90;;;;;;5375694;26;20317;-68
2024/04/17 01:59:24;;;;;;;4.40;0.80;;;8.80;99.90;;;;;;5376107;26;20280;-66
2024/04/17 02:01:50;;;;;;;1.10;0.70;;;8.70;99.90;;;;;;5370208;26;20249;-67
2024/04/17 02:04:19;;;;;;;1.87;0.70;;;8.70;99.90;;;;;;5373235;26;20339;-67
2024/04/17 02:06:45;;;;;;;1.20;0.70;;;8.70;99.90;;;;;;5364068;26;20616;-68
2024/04/17 02:09:14;;;;;;;0.83;0.60;;;8.70;99.90;;;;;;5372110;26;20307;-66
2024/04/17 02:11:40;;;;;;;1.23;0.70;;;8.70;99.90;;;;;;5368251;26;20313;-67
2024/04/17 02:14:09;;;;;;;1.20;0.70;;;8.70;99.90;;;;;;5378255;26;20238;-68
2024/04/17 02:16:37;;;;;;;1.50;0.77;;;8.80;99.90;;;;;;5365035;26;20235;-67
2024/04/17 02:19:06;;;;;;;0.97;0.70;;;8.70;99.90;;;;;;5374068;26;20358;-66
2024/04/17 02:21:35;;;;;;;0.90;0.70;;;8.70;99.90;;;;;;5363266;26;20238;-66
2024/04/17 02:24:01;;;;;;;0.70;0.70;;;8.70;99.90;;;;;;5371396;26;20239;-66
2024/04/17 02:26:30;;;;;;;0.57;0.50;;;8.70;99.90;;;;;;5364112;26;20681;-67
2024/04/17 02:28:56;;;;;;;0.57;0.57;;;8.70;99.90;;;;;;5370286;26;20278;-67
2024/04/17 02:31:25;;;;;;;0.60;0.60;;;8.80;99.90;;;;;;5363137;26;20798;-67
2024/04/17 02:33:54;;;;;;;0.60;0.60;;;8.80;99.90;;;;;;5370646;26;20704;-68
2024/04/17 02:36:22;;;;;;;0.50;0.50;;;8.70;99.90;;;;;;5379836;26;20241;-67
2024/04/17 02:38:49;;;;;;;0.50;0.50;;;8.70;99.90;;;;;;5377977;26;20782;-67
2024/04/17 02:41:17;;;;;;;0.50;0.50;;;8.70;99.90;;;;;;5377564;26;20348;-67
2024/04/17 02:43:43;;;;;;;0.50;0.50;;;8.80;99.90;;;;;;5376841;26;20372;-67
2024/04/17 02:46:12;;;;;;;0.60;0.60;;;8.80;99.90;;;;;;5374559;26;20236;-67
2024/04/17 02:48:38;;;;;;;0.77;0.67;;;8.90;99.90;;;;;;5377485;26;20232;-66
2024/04/17 02:51:10;;;;;;;0.40;0.40;;;8.90;99.90;;;;;;5372094;26;20250;-67
2024/04/17 02:53:36;;;;;;;0.50;0.50;;;9.00;99.90;;;;;;5350318;26;20261;-67
2024/04/17 02:56:05;;;;;;;0.77;0.60;;;9.10;99.90;;;;;;5370121;26;20282;-67
2024/04/17 02:58:31;;;;;;;0.90;0.60;;;9.10;99.90;;;;;;5373945;26;20247;-67
2024/04/17 03:01:00;;;;;;;1.23;0.60;;;9.10;99.90;;;;;;5366301;26;20247;-67
2024/04/17 03:03:26;;;;;;;0.60;0.60;;;9.10;99.90;;;;;;5371354;26;20356;-67
2024/04/17 03:05:55;;;;;;;0.73;0.40;;;9.00;99.90;;;;;;5369588;26;20358;-67
2024/04/17 03:08:24;;;;;;;1.23;0.60;;;9.00;99.90;;;;;;5372874;26;20288;-67
2024/04/17 03:11:00;;;;;;;1.70;0.60;;;9.00;99.90;;;;;;5362542;26;20351;-67
2024/04/17 03:13:26;;;;;;;0.53;0.53;;;9.00;99.90;;;;;;5357852;26;20233;-67
2024/04/17 03:15:55;;;;;;;0.60;0.60;;;9.00;99.90;;;;;;5363827;26;20244;-67
2024/04/17 03:18:21;;;;;;;0.83;0.80;;;9.00;99.90;;;;;;5372039;26;20860;-67
2024/04/17 03:20:50;;;;;;;0.93;0.60;;;8.90;99.90;;;;;;5364450;26;20567;-67
2024/04/17 03:23:16;;;;;;;0.40;0.40;;;8.90;99.90;;;;;;5371079;26;20719;-67
2024/04/17 03:25:56;;;;;;;0.63;0.40;;;8.90;99.90;;;;;;5366029;26;20244;-66
2024/04/17 03:28:22;;;;;;;0.50;0.50;;;9.00;99.90;;;;;;5359105;26;20292;-67
2024/04/17 03:30:51;;;;;;;0.40;0.40;;;9.10;99.90;;;;;;5370795;26;20247;-67
2024/04/17 03:33:17;;;;;;;0.43;0.43;;;9.20;99.90;;;;;;5351048;26;20854;-67
2024/04/17 03:35:56;;;;;;;0.57;0.30;;;9.30;99.90;;;;;;5365886;26;20297;-67
2024/04/17 03:38:24;;;;;;;0.40;0.40;;;9.30;99.90;;;;;;5360357;26;20269;-68
2024/04/17 03:40:57;;;;;;;0.73;0.40;;;9.40;99.90;;;;;;5396305;26;20467;-68
2024/04/17 03:43:26;;;;;;;0.40;0.40;;;9.50;99.90;;;;;;5373432;26;20242;-68
2024/04/17 03:45:56;;;;;;;0.47;0.47;;;9.50;99.90;;;;;;5374978;26;20347;-68
2024/04/17 03:48:24;;;;;;;0.40;0.40;;;9.60;99.90;;;;;;5374606;26;20244;-67
2024/04/17 03:50:50;;;;;;;0.40;0.40;;;9.60;99.90;;;;;;5365693;26;20252;-67
2024/04/17 03:53:19;;;;;;;0.63;0.30;;;9.60;99.90;;;;;;5360439;26;20270;-67
2024/04/17 03:55:45;;;;;;;0.30;0.30;;;9.60;99.90;;;;;;5368409;26;20367;-67
2024/04/17 03:58:17;;;;;;;0.40;0.40;;;9.60;99.90;;;;;;5375214;26;20635;-66
2024/04/17 04:00:43;;;;;;;0.40;0.40;;;9.70;99.90;;;;;;5372309;26;20241;-66
2024/04/17 04:03:12;;;;;;;0.40;0.40;;;9.60;99.90;;;;;;5371498;26;20352;-67
2024/04/17 04:05:42;;;;;;;0.60;0.47;;;9.60;99.90;;;;;;5373283;26;20302;-67
2024/04/17 04:08:11;;;;;;;0.50;0.50;;;9.70;99.90;;;;;;5362649;26;20244;-67
2024/04/17 04:10:37;;;;;;;0.70;0.70;;;9.70;99.90;;;;;;5372331;26;20349;-67
2024/04/17 04:13:06;;;;;;;0.90;0.60;;;9.70;99.90;;;;;;5378287;26;20236;-66
2024/04/17 04:15:38;;;;;;;0.60;0.50;;;9.70;99.90;;;;;;5375171;26;20239;-66
2024/04/17 04:18:04;;;;;;;0.47;0.47;;;9.70;99.90;;;;;;5376878;26;20283;-66
2024/04/17 04:20:34;;;;;;;0.50;0.50;;;9.70;99.90;;;;;;5378529;26;20287;-66
2024/04/17 04:23:00;;;;;;;0.50;0.50;;;9.60;99.90;;;;;;5375572;26;20235;-66
2024/04/17 04:25:29;;;;;;;0.47;0.47;;;9.60;99.90;;;;;;5373831;26;20251;-67
2024/04/17 04:27:55;;;;;;;0.70;0.50;;;9.60;99.90;;;;;;5375450;26;20299;-66
2024/04/17 04:30:24;;;;;;;0.60;0.30;;;9.70;99.90;;;;;;5370932;26;20283;-67
2024/04/17 04:32:53;;;;;;;0.37;0.37;;;9.60;99.90;;;;;;5365349;26;20244;-67
2024/04/17 04:35:22;;;;;;;0.57;0.40;;;9.60;99.90;;;;;;5361724;26;20342;-66
2024/04/17 04:37:48;;;;;;;0.87;0.50;;;9.70;99.90;;;;;;5371688;26;20239;-66
2024/04/17 04:40:17;;;;;;;0.40;0.40;;;9.70;99.90;;;;;;5369939;26;20245;-66
2024/04/17 04:42:43;;;;;;;0.60;0.60;;;9.70;99.90;;;;;;5374019;26;20725;-66
2024/04/17 04:45:13;;;;;;;2.10;0.53;;;9.70;99.90;;;;;;5376581;26;20244;-67
2024/04/17 04:47:39;;;;;;;0.77;0.40;;;9.70;99.90;;;;;;5372718;26;20261;-66
2024/04/17 04:50:11;;;;;;;0.90;0.30;;;9.70;99.90;;;;;;5377273;26;20247;-66
2024/04/17 04:52:37;;;;;;;0.40;0.40;;;9.70;99.90;;;;;;5361018;26;20235;-67
2024/04/17 04:55:07;;;;;;;0.40;0.40;;;9.70;99.90;;;;;;5378222;26;20239;-68
2024/04/17 04:57:33;;;;;;;0.40;0.40;;;9.70;99.90;;;;;;5368077;26;20316;-66
2024/04/17 05:00:03;;;;;;;0.37;0.37;;;10.30;99.90;;;;;;5376840;26;20243;-67
2024/04/17 05:02:29;;;;;;;0.30;0.30;;;9.70;99.90;;;;;;5378196;26;20301;-67
2024/04/17 05:04:58;;;;;;;0.50;0.50;;;9.70;99.90;;;;;;5367903;26;20254;-66
2024/04/17 05:07:27;;;;;;;0.40;0.40;;;9.70;99.90;;;;;;5367727;26;20333;-67
2024/04/17 05:09:56;;;;;;;0.40;0.40;;;9.70;99.90;;;;;;5367831;26;20738;-67
2024/04/17 05:12:22;;;;;;;0.80;0.60;;;9.70;99.90;;;;;;5374137;26;20236;-67
2024/04/17 05:14:51;;;;;;;0.50;0.50;;;9.70;99.90;;;;;;5339668;26;20282;-67
2024/04/17 05:17:17;;;;;;;1.63;0.70;;;9.70;99.90;;;;;;5372177;26;20286;-66
2024/04/17 05:19:46;;;;;;;0.60;0.60;;;9.80;99.90;;;;;;5361608;26;20727;-68
2024/04/17 05:22:12;;;;;;;0.57;0.50;;;9.70;99.90;;;;;;5356177;26;20291;-67
2024/04/17 05:24:44;;;;;;;0.60;0.60;;;9.80;99.90;;;;;;5377416;26;20295;-67
2024/04/17 05:27:10;;;;;;;0.70;0.70;;;9.80;99.90;;;;;;5379175;26;20232;-67
2024/04/17 05:29:38;;;;;;;0.50;0.50;;;9.80;99.90;;;;;;5365189;26;20280;-66
2024/04/17 05:32:05;;;;;;;0.40;0.40;;;9.80;99.90;;;;;;5358176;26;20592;-66
2024/04/17 05:34:34;;;;;;;0.30;0.30;;;9.80;99.90;;;;;;5360931;26;20787;-66
2024/04/17 05:37:00;;;;;;;0.60;0.60;;;9.80;99.90;;;;;;5366868;26;20562;-67
2024/04/17 05:39:32;;;;;;;0.50;0.50;;;9.90;99.80;;;;;;5373430;26;20652;-66
2024/04/17 05:42:02;;;;;;;0.80;0.40;;;9.90;99.70;;;;;;5373719;26;20306;-67
2024/04/17 05:44:31;;;;;;;0.50;0.50;;;9.90;99.60;;;;;;5370470;26;20244;-67
2024/04/17 05:46:58;;;;;;;0.50;0.50;;;9.90;99.60;;;;;;5375530;26;20262;-67
2024/04/17 05:49:26;;;;;;;0.60;0.60;;;10.00;99.00;;;;;;5369541;26;20735;-67
2024/04/17 05:51:53;;;;;;;0.40;0.40;;;10.00;98.90;;;;;;5374263;26;20236;-67
2024/04/17 05:54:21;;;;;;;0.70;0.70;;;10.00;98.80;;;;;;5370753;26;20236;-66
2024/04/17 05:56:49;;;;;;;0.50;0.50;;;10.00;98.70;;;;;;5370143;26;20399;-67
2024/04/17 05:59:20;;;;;;;0.67;0.67;;;10.00;98.60;;;;;;5369732;26;20287;-66
2024/04/17 06:01:46;;;;;;;0.40;0.40;;;10.00;98.50;;;;;;5356932;26;20303;-67
2024/04/17 06:04:16;;;;;;;0.40;0.40;;;10.00;98.40;;;;;;5362345;26;20251;-67
2024/04/17 06:06:44;;;;;;;0.53;0.53;;;10.10;98.40;;;;;;5372408;26;20312;-66
2024/04/17 06:09:13;;;;;;;0.40;0.40;;;10.10;98.40;;;;;;5374091;26;20270;-67
2024/04/17 06:11:42;;;;;;;1.13;0.90;;;10.10;98.20;;;;;;5370910;26;20332;-67
2024/04/17 06:14:08;;;;;;;0.53;0.53;;;10.10;97.80;;;;;;5368093;26;20240;-67
2024/04/17 06:16:39;;;;;;;0.40;0.40;;;10.10;97.70;;;;;;5370998;26;20354;-68
2024/04/17 06:19:05;;;;;;;0.60;0.60;;;10.10;97.70;;;;;;5361395;26;20391;-67
2024/04/17 06:21:34;;;;;;;0.67;0.60;;;10.20;97.70;;;;;;5359173;26;20298;-66
2024/04/17 06:24:01;;;;;;;0.70;0.70;;;10.20;97.60;;;;;;5374677;26;20291;-66
2024/04/17 06:26:29;;;;;;;0.37;0.37;;;10.30;97.50;;;;;;5373068;26;20288;-66
2024/04/17 06:28:56;;;;;;;0.60;0.60;;;10.30;97.30;;;;;;5368054;26;20240;-67
2024/04/17 06:31:25;;;;;;;0.63;0.63;;;10.30;97.20;;;;;;5367194;26;20323;-66
2024/04/17 06:33:54;;;;;;;0.73;0.73;;;10.30;97.20;;;;;;5371785;26;20233;-67
2024/04/17 06:36:23;;;;;;;0.50;0.50;;;10.30;97.20;;;;;;5359175;26;20795;-66
2024/04/17 06:38:49;;;;;;;0.97;0.50;;;10.30;97.10;;;;;;5375239;26;20320;-66
2024/04/17 06:41:18;;;;;;;0.83;0.80;;;10.30;97.00;;;;;;5366563;26;20256;-67
2024/04/17 06:43:44;;;;;;;1.23;0.90;;;10.30;96.90;;;;;;5367830;26;20279;-66
2024/04/17 06:46:13;;;;;;;0.93;0.70;;;10.30;96.80;;;;;;5360500;26;20416;-66
2024/04/17 06:48:40;;;;;;;0.87;0.60;;;10.20;96.80;;;;;;5368881;26;20355;-66
2024/04/17 06:51:11;;;;;;;0.63;0.53;;;10.30;97.00;;;;;;5364708;26;20239;-67
2024/04/17 06:53:38;;;;;;;1.07;0.47;;;10.30;96.90;;;;;;5361251;26;20833;-67
2024/04/17 06:56:07;;;;;;;0.50;0.50;;;10.40;96.90;;;;;;5369271;26;20277;-66
2024/04/17 06:58:33;;;;;;;0.37;0.37;;;10.50;96.70;;;;;;5369907;26;20528;-66
2024/04/17 07:01:02;;;;;;;0.50;0.50;;;10.50;96.70;;;;;;5373183;26;20290;-66
2024/04/17 07:03:28;;;;;;;0.77;0.70;;;10.60;96.60;;;;;;5373122;26;20360;-68
2024/04/17 07:06:03;;;;;;;1.43;0.97;;;10.60;96.40;;;;;;5375231;26;20238;-67
2024/04/17 07:08:32;;;;;;;1.30;0.70;;;10.60;96.30;;;;;;5369102;26;20287;-67
2024/04/17 07:11:01;;;;;;;0.80;0.80;;;10.60;96.30;;;;;;5373860;26;20625;-66
2024/04/17 07:13:27;;;;;;;1.50;0.90;;;10.60;96.10;;;;;;5368931;26;20302;-66
2024/04/17 07:15:57;;;;;;;0.87;0.80;;;10.50;96.00;;;;;;5371335;26;20236;-66
2024/04/17 07:18:24;;;;;;;0.97;0.70;;;10.60;96.10;;;;;;5370068;26;20244;-67
2024/04/17 07:20:53;;;;;;;0.90;0.70;;;10.60;96.00;;;;;;5371547;26;20942;-67
2024/04/17 07:23:19;;;;;;;0.77;0.60;;;10.60;95.90;;;;;;5369227;26;20237;-66
2024/04/17 07:25:51;;;;;;;0.50;0.50;;;10.70;95.80;;;;;;5368669;26;20244;-66
2024/04/17 07:28:21;;;;;;;0.93;0.83;;;10.70;95.70;;;;;;5375003;26;20330;-66
2024/04/17 07:30:49;;;;;;;0.60;0.57;;;10.90;95.30;;;;;;5370330;26;20349;-67
2024/04/17 07:33:16;;;;;;;1.03;0.50;;;10.90;95.40;;;;;;5374668;26;20302;-67
2024/04/17 07:35:44;;;;;;;0.47;0.40;;;11.00;95.40;;;;;;5373405;26;20285;-67
2024/04/17 07:38:10;;;;;;;1.43;0.60;;;11.10;95.40;;;;;;5369860;26;20345;-67
2024/04/17 07:40:39;;;;;;;2.03;0.77;;;11.20;95.40;;;;;;5375719;26;20291;-68
2024/04/17 07:43:08;;;;;;;0.50;0.50;;;11.20;95.00;;;;;;5369964;26;20414;-66
2024/04/17 07:45:37;;;;;;;0.50;0.50;;;11.10;94.90;;;;;;5371795;26;20243;-67
2024/04/17 07:48:04;;;;;;;0.80;0.60;;;11.20;95.00;;;;;;5374429;26;20259;-67
2024/04/17 07:50:32;;;;;;;1.43;0.87;;;11.40;94.90;;;;;;5373346;26;20244;-67
2024/04/17 07:52:59;;;;;;;1.43;0.83;;;11.50;94.70;;;;;;5369053;26;20709;-65
2024/04/17 07:55:27;;;;;;;0.73;0.60;;;11.60;94.50;;;;;;5377680;26;20239;-67
2024/04/17 07:57:53;;;;;;;0.80;0.80;;;11.70;94.40;;;;;;5370746;26;20771;-68
2024/04/17 08:00:25;;;;;;;0.60;0.60;;;11.80;94.40;;;;;;5369044;26;20289;-65
2024/04/17 08:02:51;;;;;;;1.13;0.90;;;12.00;94.20;;;;;;5369434;26;20322;-66
2024/04/17 08:05:20;;;;;;;0.90;0.63;;;12.00;94.00;;;;;;5368771;26;20368;-67
2024/04/17 08:07:46;;;;;;;0.40;0.40;;;12.10;93.80;;;;;;5358809;26;20306;-67
2024/04/17 08:10:15;;;;;;;0.83;0.60;;;12.20;93.60;;;;;;5367906;26;20240;-67
2024/04/17 08:12:44;;;;;;;17.73;8.93;;;12.20;93.40;;;;;;5367579;26;20720;-66
2024/04/17 08:15:15;;;;;;;7.53;4.97;;;12.30;92.60;;;;;;5369173;26;20240;-66
2024/04/17 08:17:44;;;;;;;4.60;3.50;;;12.10;92.50;;;;;;5367459;26;20239;-67
2024/04/17 08:20:13;;;;;;;3.07;2.70;;;12.20;92.60;;;;;;5365550;26;20325;-67
2024/04/17 08:22:39;;;;;;;2.17;1.77;;;12.20;92.70;;;;;;5366981;26;20237;-67
2024/04/17 08:25:08;;;;;;;1.63;1.53;;;12.20;92.70;;;;;;5374443;26;20244;-67
2024/04/17 08:27:34;;;;;;;3.10;0.90;;;12.30;92.80;;;;;;5378739;26;20240;-66
2024/04/17 08:30:03;;;;;;;1.43;0.97;;;12.30;92.50;;;;;;5374921;26;20331;-65
2024/04/17 08:32:29;;;;;;;1.13;0.70;;;12.30;92.50;;;;;;5374506;26;20244;-66
2024/04/17 08:35:00;;;;;;;0.60;0.60;;;12.30;92.60;;;;;;5375797;26;20561;-67
2024/04/17 08:37:27;;;;;;;0.60;0.60;;;12.40;92.60;;;;;;5375573;26;20502;-67
2024/04/17 08:39:55;;;;;;;0.60;0.50;;;12.40;92.60;;;;;;5369275;26;20714;-67
2024/04/17 08:42:22;;;;;;;0.40;0.40;;;12.50;92.60;;;;;;5375054;26;20251;-67
2024/04/17 08:44:51;;;;;;;0.40;0.40;;;12.60;92.40;;;;;;5373932;26;20348;-67
2024/04/17 08:47:19;;;;;;;0.60;0.60;;;12.70;92.30;;;;;;5376242;26;20292;-67
2024/04/17 08:49:49;;;;;;;0.33;0.33;;;12.70;92.20;;;;;;5367101;26;20360;-67
2024/04/17 08:52:20;;;;;;;0.43;0.43;;;12.80;92.20;;;;;;5372710;26;20241;-67
2024/04/17 08:54:50;;;;;;;0.50;0.50;;;12.90;92.10;;;;;;5375691;26;20236;-67
2024/04/17 08:57:16;;;;;;;1.10;0.50;;;13.00;92.20;;;;;;5376600;26;20290;-68
2024/04/17 08:59:45;;;;;;;0.53;0.50;;;13.10;92.20;;;;;;5379122;26;20716;-68
2024/04/17 09:02:14;;;;;;;0.67;0.50;;;13.20;92.20;;;;;;5404240;26;20320;-67
2024/04/17 09:04:45;;;;;;;0.67;0.50;;;13.20;92.10;;;;;;5379250;26;20817;-66
2024/04/17 09:07:11;;;;;;;0.50;0.50;;;13.20;92.00;;;;;;5373864;26;20308;-66
2024/04/17 09:09:44;;;;;;;0.70;0.60;;;13.10;91.90;;;;;;5366539;26;20252;-66
2024/04/17 09:12:11;;;;;;;1.13;0.50;;;13.00;91.80;;;;;;5374589;26;20236;-66
2024/04/17 09:14:40;;;;;;;0.43;0.43;;;13.00;91.80;;;;;;5376840;26;20283;-67
2024/04/17 09:17:07;;;;;;;0.90;0.60;;;12.90;91.90;;;;;;5366944;26;20306;-67
2024/04/17 09:19:36;;;;;;;1.47;0.70;;;12.70;91.90;;;;;;5378695;26;20268;-66
2024/04/17 09:22:03;;;;;;;1.77;0.63;;;12.60;92.00;;;;;;5379503;26;20820;-66
2024/04/17 09:24:40;;;;;;;3.20;0.87;;;12.40;92.00;;;;;;5379338;26;20244;-67
2024/04/17 09:27:13;;;;;;;3.17;0.90;;;12.20;92.20;;;;;;5374571;26;20232;-67
2024/04/17 09:29:42;;;;;;;0.70;0.70;;;12.10;92.40;;;;;;5370536;26;20291;-67
2024/04/17 09:32:15;;;;;;;0.73;0.73;;;12.20;92.60;;;;;;5376139;26;20232;-67
2024/04/17 09:34:41;;;;;;;0.80;0.80;;;12.30;92.30;;;;;;5369824;26;20313;-67
2024/04/17 09:37:12;;;;;;;0.50;0.50;;;12.40;92.30;;;;;;5379477;26;20241;-67
2024/04/17 09:39:39;;;;;;;1.63;0.93;;;12.50;92.30;;;;;;5378030;26;20248;-67
2024/04/17 09:42:12;;;;;;;1.33;0.90;;;12.60;92.20;;;;;;5375400;26;20618;-67
2024/04/17 09:44:39;;;;;;;1.97;0.90;;;12.60;91.90;;;;;;5377067;26;20233;-66
2024/04/17 09:47:11;;;;;;;2.23;1.10;;;12.50;91.90;;;;;;5375792;26;20314;-67
2024/04/17 09:49:38;;;;;;;1.47;0.83;;;12.60;91.90;;;;;;5370930;26;20237;-66
2024/04/17 09:52:07;;;;;;;1.73;0.97;;;12.70;92.00;;;;;;5349750;26;20249;-67
2024/04/17 09:54:35;;;;;;;1.20;0.90;;;12.80;92.10;;;;;;5365851;26;20240;-67
2024/04/17 09:57:06;;;;;;;0.90;0.80;;;12.80;91.80;;;;;;5376074;26;20620;-67
2024/04/17 09:59:36;;;;;;;0.83;0.70;;;12.70;91.50;;;;;;5377733;26;20304;-67
2024/04/17 10:02:08;;;;;;;0.70;0.60;;;12.60;91.70;;;;;;5376462;26;20373;-66
2024/04/17 10:04:35;;;;;;;1.07;0.83;;;12.60;91.40;;;;;;5377387;26;20687;-67
2024/04/17 10:07:06;;;;;;;0.73;0.50;;;12.40;91.00;;;;;;5361993;26;20818;-69
2024/04/17 10:09:34;;;;;;;1.33;0.60;;;12.20;91.00;;;;;;5374768;26;20240;-67
2024/04/17 10:12:03;;;;;;;0.50;0.50;;;12.00;91.20;;;;;;5370235;26;20245;-66
2024/04/17 10:14:30;;;;;;;2.93;0.80;;;11.90;91.40;;;;;;5362338;26;20371;-66
2024/04/17 10:17:01;;;;;;;1.17;0.50;;;11.90;91.60;;;;;;5362527;26;20595;-66
2024/04/17 10:19:27;;;;;;;0.67;0.60;;;12.00;91.70;;;;;;5359663;26;20295;-66
2024/04/17 10:21:57;;;;;;;1.43;0.70;;;11.90;91.50;;;;;;5376226;26;20365;-66
2024/04/17 10:24:23;;;;;;;0.97;0.70;;;11.90;91.70;;;;;;5369595;26;20615;-67
2024/04/17 10:26:54;;;;;;;0.80;0.80;;;11.80;91.10;;;;;;5373876;26;20299;-65
2024/04/17 10:29:24;;;;;;;0.80;0.57;;;11.60;91.10;;;;;;5376247;26;20561;-66
2024/04/17 10:32:06;;;;;;;0.53;0.53;;;11.60;91.40;;;;;;5373574;26;20275;-66
2024/04/17 10:34:42;;;;;;;2.13;0.90;;;11.60;91.50;;;;;;5372039;26;20304;-66
2024/04/17 10:37:16;;;;;;;1.17;0.70;;;11.60;91.50;;;;;;5371797;26;20492;-66
2024/04/17 10:39:43;;;;;;;3.03;0.80;;;11.50;91.40;;;;;;5377259;26;20722;-66
2024/04/17 10:42:18;;;;;;;0.67;0.67;;;11.40;91.50;;;;;;5365314;26;20241;-66
2024/04/17 10:44:45;;;;;;;1.70;0.80;;;11.40;91.50;;;;;;5371386;26;20588;-67
2024/04/17 10:47:24;;;;;;;2.00;0.57;;;11.40;91.50;;;;;;5375665;26;20955;-66
2024/04/17 10:49:58;;;;;;;1.13;0.63;;;11.40;91.50;;;;;;5369064;26;20278;-66
2024/04/17 10:52:27;;;;;;;1.20;0.77;;;11.40;91.80;;;;;;5393348;26;20269;-66
2024/04/17 10:54:54;;;;;;;5.63;1.00;;;11.60;91.90;;;;;;5374137;26;20283;-67
2024/04/17 10:57:24;;;;;;;2.93;1.17;;;11.70;91.70;;;;;;5368412;26;20240;-66
2024/04/17 10:59:51;;;;;;;1.13;0.90;;;11.70;91.40;;;;;;5372479;26;20280;-66
2024/04/17 11:02:23;;;;;;;0.77;0.73;;;11.60;91.30;;;;;;5371315;26;20290;-67
2024/04/17 11:04:49;;;;;;;2.07;1.00;;;11.50;91.50;;;;;;5366061;26;20357;-65
2024/04/17 11:07:19;;;;;;;0.73;0.70;;;11.40;91.70;;;;;;5374647;26;20616;-66
2024/04/17 11:09:45;;;;;;;0.67;0.67;;;11.40;91.80;;;;;;5365643;26;20232;-66
2024/04/17 11:12:16;;;;;;;1.13;0.77;;;11.40;91.90;;;;;;5367565;26;20826;-66
2024/04/17 11:14:48;;;;;;;2.93;0.60;;;11.40;91.70;;;;;;5370604;26;20236;-66
2024/04/17 11:17:14;;;;;;;0.60;0.60;;;11.40;91.50;;;;;;5365259;26;20229;-67
2024/04/17 11:19:46;;;;;;;0.80;0.70;;;11.40;91.40;;;;;;5371635;26;20319;-67
2024/04/17 11:22:14;;;;;;;1.43;0.60;;;11.40;91.30;;;;;;5374218;26;20286;-65
2024/04/17 11:24:47;;;;;;;1.10;0.57;;;11.50;91.40;;;;;;5375218;26;20242;-66
2024/04/17 11:27:16;;;;;;;0.60;0.60;;;11.70;91.40;;;;;;5373107;26;20236;-66
2024/04/17 11:29:46;;;;;;;0.87;0.73;;;12.00;91.40;;;;;;5372705;26;20694;-67
2024/04/17 11:32:13;;;;;;;1.27;1.10;;;12.20;91.30;;;;;;5374982;26;20228;-70
2024/04/17 11:34:45;;;;;;;2.47;1.60;;;12.40;92.00;;;;;;5374632;26;20236;-70
2024/04/17 11:37:13;;;;;;;2.03;1.60;;;12.90;93.50;;;;;;5375157;26;20244;-71
2024/04/17 11:39:43;;;;;;;2.27;1.70;;;13.40;93.70;;;;;;5353555;26;20250;-71
2024/04/17 11:42:11;;;;;;;1.93;1.73;;;13.70;93.80;;;;;;5376691;26;20233;-71
2024/04/17 11:44:40;;;;;;;1.80;1.33;;;14.10;93.70;;;;;;5375461;26;20689;-71
2024/04/17 11:47:09;;;;;;;1.50;1.40;;;14.20;93.50;;;;;;5374888;26;20570;-71
2024/04/17 11:49:39;;;;;;;1.60;1.43;;;14.40;93.40;;;;;;5369620;26;20351;-71
2024/04/17 11:52:10;;;;;;;1.63;1.53;;;14.50;93.40;;;;;;5375166;26;20239;-69
2024/04/17 11:54:39;;;;;;;4.97;1.50;;;14.50;92.50;;;;;;5372336;26;20239;-71
2024/04/17 11:57:06;;;;;;;1.47;1.37;;;14.70;92.50;;;;;;5370000;26;20243;-71
2024/04/17 11:59:35;;;;;;;1.50;1.40;;;14.80;91.90;;;;;;5375547;26;20603;-71
2024/04/17 12:02:01;;;;;;;1.80;1.70;;;15.00;91.60;;;;;;5375586;26;20341;-71
2024/04/17 12:04:30;;;;;;;1.30;1.20;;;15.10;91.30;;;;;;5374169;26;20663;-69
2024/04/17 12:06:57;;;;;;;1.67;1.23;;;15.30;91.30;;;;;;5376254;26;20253;-70
2024/04/17 12:09:30;;;;;;;1.30;1.20;;;15.40;91.00;;;;;;5376489;26;20349;-70
2024/04/17 12:11:56;;;;;;;0.73;0.73;;;15.60;90.90;;;;;;5375152;26;20228;-71
2024/04/17 12:14:25;;;;;;;0.80;0.80;;;15.70;90.80;;;;;;5364280;26;20244;-71
2024/04/17 12:16:51;;;;;;;2.73;1.10;;;15.80;90.60;;;;;;5353427;26;20259;-71
2024/04/17 12:19:20;;;;;;;1.13;1.10;;;15.90;90.00;;;;;;5370474;26;20319;-70
2024/04/17 12:21:46;;;;;;;1.27;1.17;;;15.80;89.70;;;;;;5367364;26;20300;-71
2024/04/17 12:24:19;;;;;;;0.80;0.80;;;15.80;89.50;;;;;;5373028;26;20237;-70
2024/04/17 12:26:51;;;;;;;1.10;0.80;;;15.60;89.10;;;;;;5387000;26;20366;-71
2024/04/17 12:29:20;;;;;;;1.13;0.90;;;15.50;89.10;;;;;;5364294;26;20308;-70
2024/04/17 12:31:49;;;;;;;0.97;0.83;;;15.40;89.00;;;;;;5369680;26;20235;-70
2024/04/17 12:34:18;;;;;;;1.87;1.20;;;15.30;88.60;;;;;;5360444;26;20237;-71
2024/04/17 12:36:47;;;;;;;1.30;1.20;;;15.40;88.50;;;;;;5363593;26;20232;-70
2024/04/17 12:39:16;;;;;;;1.40;1.30;;;15.50;88.40;;;;;;5357618;26;20235;-71
2024/04/17 12:41:45;;;;;;;1.20;1.10;;;15.60;87.90;;;;;;5372164;26;20232;-70
2024/04/17 12:44:16;;;;;;;1.20;1.10;;;15.70;87.50;;;;;;5387220;26;20232;-71
2024/04/17 12:46:45;;;;;;;3.70;2.20;;;15.80;87.20;;;;;;5370867;26;20608;-70
2024/04/17 12:49:15;;;;;;;2.43;1.97;;;15.90;86.40;;;;;;5372791;26;20315;-70
2024/04/17 12:51:44;;;;;;;1.60;1.50;;;16.00;86.20;;;;;;5352583;26;20271;-70
2024/04/17 12:54:13;;;;;;;1.30;1.20;;;16.10;86.10;;;;;;5373293;26;20344;-70
2024/04/17 12:56:42;;;;;;;1.00;0.87;;;16.20;85.90;;;;;;5369637;26;20249;-70